createdAt,value
2018-06-10T00:01:46.592Z,0
2018-06-10T00:11:46.577Z,0
2018-06-10T00:21:46.648Z,0
2018-06-10T00:31:46.567Z,0
2018-06-10T00:41:46.531Z,0
2018-06-10T00:51:46.605Z,0
2018-06-10T01:01:46.545Z,0
2018-06-10T01:11:46.531Z,0
2018-06-10T01:21:46.598Z,0
2018-06-10T01:31:46.592Z,0
2018-06-10T01:41:46.619Z,0
2018-06-10T01:51:46.575Z,0
2018-06-10T02:01:46.526Z,0
2018-06-10T02:11:46.567Z,0
2018-06-10T02:21:46.571Z,0
2018-06-10T02:31:46.628Z,0
2018-06-10T02:41:46.560Z,0
2018-06-10T02:51:46.533Z,0
2018-06-10T03:01:46.575Z,0
2018-06-10T03:11:46.560Z,0
2018-06-10T03:21:46.533Z,0
2018-06-10T03:31:46.601Z,0
2018-06-10T03:41:46.512Z,0
2018-06-10T03:51:46.640Z,0
2018-06-10T04:01:46.625Z,5
2018-06-10T04:11:46.645Z,5
2018-06-10T04:21:46.628Z,10
2018-06-10T04:31:46.620Z,15
2018-06-10T04:41:46.502Z,25
2018-06-10T04:51:46.644Z,35
2018-06-10T05:01:46.577Z,45
2018-06-10T05:11:46.609Z,45
2018-06-10T05:21:46.581Z,45
2018-06-10T05:31:46.556Z,55
2018-06-10T05:41:46.584Z,65
2018-06-10T05:51:46.588Z,75
2018-06-10T06:01:46.674Z,70
2018-06-10T06:11:46.676Z,70
2018-06-10T06:21:46.567Z,65
2018-06-10T06:31:46.582Z,65
2018-06-10T06:41:46.526Z,95
2018-06-10T06:51:47.551Z,135
2018-06-10T07:01:46.671Z,195
2018-06-10T07:11:46.579Z,185
2018-06-10T07:21:46.661Z,230
2018-06-10T07:31:46.604Z,230
2018-06-10T07:41:46.739Z,300
2018-06-10T07:51:46.683Z,315
2018-06-10T08:01:46.584Z,310
2018-06-10T08:11:46.662Z,320
2018-06-10T08:21:46.611Z,275
2018-06-10T08:31:46.733Z,250
2018-06-10T08:41:46.633Z,260
2018-06-10T08:51:46.613Z,255
2018-06-10T09:01:46.623Z,310
2018-06-10T09:11:46.635Z,265
2018-06-10T09:21:46.711Z,330
2018-06-10T09:31:46.659Z,195
2018-06-10T09:41:46.624Z,330
2018-06-10T09:51:46.857Z,310
2018-06-10T10:01:46.602Z,355
2018-06-10T10:11:46.753Z,360
2018-06-10T10:21:46.704Z,410
2018-06-10T10:31:46.769Z,385
2018-06-10T10:41:46.681Z,380
2018-06-10T10:51:46.672Z,420
2018-06-10T11:01:46.652Z,395
2018-06-10T11:11:46.671Z,375
2018-06-10T11:21:46.617Z,395
2018-06-10T11:31:46.698Z,265
2018-06-10T11:41:46.694Z,275
2018-06-10T11:51:46.778Z,340
2018-06-10T12:01:46.701Z,280
2018-06-10T12:11:46.801Z,310
2018-06-10T12:21:46.660Z,275
2018-06-10T12:31:46.631Z,340
2018-06-10T12:41:46.694Z,290
2018-06-10T12:51:46.658Z,335
2018-06-10T13:01:46.739Z,275
2018-06-10T13:11:46.683Z,205
2018-06-10T13:21:46.652Z,250
2018-06-10T13:31:46.731Z,280
2018-06-10T13:41:46.787Z,340
2018-06-10T13:51:46.756Z,315
2018-06-10T14:01:46.657Z,215
2018-06-10T14:11:46.636Z,170
2018-06-10T14:21:46.752Z,155
2018-06-10T14:31:46.713Z,205
2018-06-10T14:41:46.781Z,165
2018-06-10T14:51:46.705Z,145
2018-06-10T15:01:46.687Z,195
2018-06-10T15:11:46.815Z,240
2018-06-10T15:21:46.636Z,195
2018-06-10T15:31:46.797Z,170
2018-06-10T15:41:46.741Z,215
2018-06-10T15:51:46.641Z,180
2018-06-10T16:01:46.737Z,155
2018-06-10T16:11:46.778Z,125
2018-06-10T16:21:46.785Z,120
2018-06-10T16:31:46.733Z,120
2018-06-10T16:41:46.904Z,110
2018-06-10T16:51:46.839Z,110
2018-06-10T17:01:47.999Z,110
2018-06-10T17:11:46.951Z,105
2018-06-10T17:21:46.842Z,95
2018-06-10T17:31:46.820Z,90
2018-06-10T17:41:46.704Z,90
2018-06-10T17:51:46.748Z,90
2018-06-10T18:01:47.463Z,75
2018-06-10T18:11:48.659Z,70
2018-06-10T18:21:47.353Z,70
2018-06-10T18:31:46.823Z,60
2018-06-10T18:41:46.990Z,50
2018-06-10T18:51:46.824Z,45
2018-06-10T19:01:46.904Z,40
2018-06-10T19:11:46.990Z,30
2018-06-10T19:21:47.393Z,20
2018-06-10T19:31:46.992Z,15
2018-06-10T19:41:48.000Z,5
2018-06-10T19:51:47.539Z,0
2018-06-10T20:01:46.962Z,0
2018-06-10T20:11:48.286Z,0
2018-06-10T20:21:47.022Z,0
2018-06-10T20:31:48.062Z,0
2018-06-10T20:41:47.287Z,0
2018-06-10T20:51:47.716Z,0
2018-06-10T21:01:47.233Z,0
2018-06-10T21:11:47.176Z,0
2018-06-10T21:21:46.958Z,0
2018-06-10T21:31:47.100Z,0
2018-06-10T21:41:47.254Z,0
2018-06-10T21:51:46.840Z,0
2018-06-10T22:01:46.834Z,0
2018-06-10T22:11:47.029Z,0
2018-06-10T22:21:46.889Z,0
2018-06-10T22:31:46.814Z,0
2018-06-10T22:41:46.834Z,0
2018-06-10T22:51:47.065Z,0
2018-06-10T23:01:46.741Z,0
2018-06-10T23:11:46.958Z,0
2018-06-10T23:21:46.936Z,0
2018-06-10T23:31:46.847Z,0
2018-06-10T23:41:46.956Z,0
2018-06-10T23:51:46.744Z,0
